Time;durP1;ratioP1;P1;durP2;ratioP2;P2;SDS_P1;SDS_P2;PMS_P1;PMS_P2;Temp;Humidity;BMP_temperature;BMP_pressure;BME280_temperature;BME280_humidity;BME280_pressure;Samples;Min_cycle;Max_cycle;Signal;HPM_P1;HPM_P2
2024/01/16 00:02:22;;;;;;;15.52;7.40;;;0.80;99.90;;;;;;5047816;28;20719;-52
2024/01/16 00:04:48;;;;;;;12.05;6.50;;;0.80;99.90;;;;;;5045942;28;20068;-56
2024/01/16 00:07:13;;;;;;;17.02;6.90;;;0.80;99.90;;;;;;5046351;28;20041;-55
2024/01/16 00:09:39;;;;;;;23.88;7.20;;;0.70;99.90;;;;;;5047807;28;20045;-55
2024/01/16 00:12:05;;;;;;;21.75;7.40;;;0.80;99.90;;;;;;5056058;28;20143;-53
2024/01/16 00:14:35;;;;;;;16.70;7.45;;;0.80;99.90;;;;;;5050983;28;20847;-54
2024/01/16 00:17:00;;;;;;;19.17;8.10;;;0.80;99.90;;;;;;5047739;28;20040;-53
2024/01/16 00:19:26;;;;;;;19.80;6.30;;;0.80;99.90;;;;;;5045383;28;20021;-55
2024/01/16 00:21:51;;;;;;;11.75;6.32;;;0.80;99.90;;;;;;5021467;28;20115;-56
2024/01/16 00:24:17;;;;;;;20.48;6.50;;;0.80;99.90;;;;;;5065306;28;20036;-56
2024/01/16 00:26:43;;;;;;;17.70;5.75;;;0.80;99.90;;;;;;5060516;28;20037;-52
2024/01/16 00:29:09;;;;;;;15.80;6.45;;;0.80;99.90;;;;;;5065758;28;20506;-53
2024/01/16 00:31:35;;;;;;;15.00;6.13;;;0.80;99.90;;;;;;5064685;28;20174;-55
2024/01/16 00:34:01;;;;;;;10.05;6.38;;;0.80;99.90;;;;;;5067017;28;20041;-54
2024/01/16 00:36:26;;;;;;;17.30;6.32;;;0.80;99.90;;;;;;5084475;28;20032;-55
2024/01/16 00:38:52;;;;;;;19.88;7.55;;;0.80;99.90;;;;;;5066959;28;20523;-56
2024/01/16 00:41:17;;;;;;;10.23;6.45;;;0.80;99.90;;;;;;5066810;28;20025;-52
2024/01/16 00:43:44;;;;;;;23.83;6.68;;;0.80;99.90;;;;;;5066258;28;20028;-58
2024/01/16 00:46:09;;;;;;;18.85;6.90;;;0.80;99.90;;;;;;5066579;28;20391;-58
2024/01/16 00:48:35;;;;;;;16.15;6.75;;;0.80;99.90;;;;;;5078872;28;20048;-59
2024/01/16 00:51:01;;;;;;;14.75;7.10;;;0.80;99.90;;;;;;5078870;28;20043;-56
2024/01/16 00:53:27;;;;;;;18.90;7.55;;;0.80;99.90;;;;;;5076605;28;20032;-57
2024/01/16 00:55:54;;;;;;;15.73;7.47;;;0.80;99.90;;;;;;5067410;28;20040;-57
2024/01/16 00:58:21;;;;;;;20.90;7.20;;;0.80;99.90;;;;;;5070491;28;20047;-57
2024/01/16 01:00:46;;;;;;;14.68;7.25;;;0.80;99.90;;;;;;5060758;28;20033;-57
2024/01/16 01:03:12;;;;;;;12.98;6.80;;;0.80;99.90;;;;;;5065431;28;20031;-55
2024/01/16 01:05:38;;;;;;;17.00;7.38;;;0.70;99.90;;;;;;5046823;28;20033;-57
2024/01/16 01:08:03;;;;;;;19.85;7.28;;;0.80;99.90;;;;;;5053302;28;20721;-56
2024/01/16 01:10:29;;;;;;;26.70;8.18;;;0.80;99.90;;;;;;5044252;28;20037;-58
2024/01/16 01:12:55;;;;;;;19.30;8.43;;;0.70;99.90;;;;;;5053055;28;20095;-58
2024/01/16 01:15:21;;;;;;;12.25;7.00;;;0.70;99.90;;;;;;5052247;28;20025;-57
2024/01/16 01:17:49;;;;;;;14.45;7.63;;;0.70;99.90;;;;;;5047490;28;20471;-56
2024/01/16 01:20:15;;;;;;;17.67;7.97;;;0.70;99.90;;;;;;5051897;28;20023;-55
2024/01/16 01:22:40;;;;;;;14.57;7.22;;;0.70;99.90;;;;;;5053290;28;20094;-56
2024/01/16 01:25:07;;;;;;;22.98;8.82;;;0.70;99.90;;;;;;5052339;28;20029;-55
2024/01/16 01:27:32;;;;;;;22.90;7.97;;;0.60;99.90;;;;;;5046611;28;20088;-55
2024/01/16 01:29:58;;;;;;;22.02;8.65;;;0.70;99.90;;;;;;5044337;28;20560;-55
2024/01/16 01:32:24;;;;;;;14.52;7.20;;;0.70;99.90;;;;;;5048125;28;20017;-53
2024/01/16 01:34:49;;;;;;;27.10;8.63;;;0.70;99.90;;;;;;5045815;28;20025;-53
2024/01/16 01:37:15;;;;;;;15.18;8.02;;;0.70;99.90;;;;;;5064493;28;20499;-53
2024/01/16 01:39:41;;;;;;;18.20;9.05;;;0.70;99.90;;;;;;5048996;28;20028;-54
2024/01/16 01:42:06;;;;;;;17.40;8.15;;;0.70;99.90;;;;;;5040319;28;20051;-54
2024/01/16 01:44:32;;;;;;;16.92;8.13;;;0.70;99.90;;;;;;5048954;28;20021;-54
2024/01/16 01:46:58;;;;;;;18.02;8.60;;;0.60;99.90;;;;;;5059284;28;20029;-57
2024/01/16 01:49:25;;;;;;;19.83;8.00;;;0.60;99.90;;;;;;5052210;28;20112;-56
2024/01/16 01:51:51;;;;;;;18.63;8.65;;;0.70;99.90;;;;;;5046058;28;20468;-58
2024/01/16 01:54:18;;;;;;;17.25;8.20;;;0.70;99.90;;;;;;5051497;28;20063;-57
2024/01/16 01:56:46;;;;;;;20.58;7.20;;;0.60;99.90;;;;;;5052738;28;20032;-58
2024/01/16 01:59:14;;;;;;;17.63;7.63;;;0.70;99.90;;;;;;5051784;28;20029;-56
2024/01/16 02:01:41;;;;;;;12.63;6.65;;;0.70;99.90;;;;;;5021030;28;20064;-59
2024/01/16 02:04:09;;;;;;;20.77;7.50;;;0.70;99.90;;;;;;5043027;28;20421;-58
2024/01/16 02:06:35;;;;;;;16.90;8.18;;;0.70;99.90;;;;;;5047479;28;20033;-59
2024/01/16 02:09:00;;;;;;;17.83;6.93;;;0.70;99.90;;;;;;5050031;28;20539;-60
2024/01/16 02:11:26;;;;;;;13.95;6.13;;;0.60;99.90;;;;;;5047170;28;20111;-55
2024/01/16 02:13:52;;;;;;;15.30;7.03;;;0.70;99.90;;;;;;5045993;28;20828;-57
2024/01/16 02:16:22;;;;;;;10.27;5.25;;;0.70;99.90;;;;;;5044319;28;20091;-55
2024/01/16 02:18:48;;;;;;;17.08;6.22;;;0.60;99.90;;;;;;5049229;28;20116;-58
2024/01/16 02:21:20;;;;;;;14.52;6.03;;;0.60;99.90;;;;;;5048917;28;20025;-56
2024/01/16 02:23:46;;;;;;;19.95;6.82;;;0.60;99.90;;;;;;5046131;28;20060;-58
2024/01/16 02:26:14;;;;;;;12.18;5.20;;;0.60;99.90;;;;;;5051424;23;20045;-57
2024/01/16 02:28:39;;;;;;;14.75;5.53;;;0.60;99.90;;;;;;5030879;28;20527;-54
2024/01/16 02:31:06;;;;;;;11.95;6.30;;;0.60;99.90;;;;;;5031234;28;20068;-56
2024/01/16 02:33:32;;;;;;;23.38;6.57;;;0.60;99.90;;;;;;5031160;28;20037;-54
2024/01/16 02:35:58;;;;;;;16.60;6.47;;;0.70;99.90;;;;;;5030717;28;20391;-57
2024/01/16 02:38:24;;;;;;;15.55;6.65;;;0.70;99.90;;;;;;5031067;28;20021;-54
2024/01/16 02:40:50;;;;;;;12.30;6.47;;;0.70;99.90;;;;;;5030686;28;20071;-57
2024/01/16 02:43:16;;;;;;;21.33;7.25;;;0.70;99.90;;;;;;5030803;28;20037;-54
2024/01/16 02:45:41;;;;;;;15.55;6.95;;;0.60;99.90;;;;;;5022435;28;20026;-54
2024/01/16 02:48:07;;;;;;;18.13;8.15;;;0.60;99.90;;;;;;5030563;28;20025;-57
2024/01/16 02:50:33;;;;;;;17.30;7.75;;;0.60;99.90;;;;;;5030613;28;20037;-56
2024/01/16 02:52:58;;;;;;;21.75;8.73;;;0.60;99.90;;;;;;5029309;28;20160;-54
2024/01/16 02:55:24;;;;;;;11.70;7.28;;;0.60;99.90;;;;;;5030384;28;20030;-55
2024/01/16 02:57:50;;;;;;;18.75;8.27;;;0.60;99.90;;;;;;5030457;28;20025;-57
2024/01/16 03:00:17;;;;;;;13.70;8.20;;;0.60;99.90;;;;;;5030515;28;20026;-56
2024/01/16 03:02:43;;;;;;;24.05;7.57;;;0.70;99.90;;;;;;5012347;28;20029;-54
2024/01/16 03:05:10;;;;;;;23.00;7.63;;;0.60;99.90;;;;;;5013597;28;20037;-56
2024/01/16 03:07:36;;;;;;;12.32;7.40;;;0.60;99.90;;;;;;5014529;28;20116;-55
2024/01/16 03:10:02;;;;;;;24.13;7.55;;;0.50;99.90;;;;;;5014992;28;20057;-57
2024/01/16 03:12:28;;;;;;;22.65;7.72;;;0.50;99.90;;;;;;5014650;28;20033;-57
2024/01/16 03:14:54;;;;;;;19.63;7.93;;;0.50;99.90;;;;;;5014456;28;20030;-55
2024/01/16 03:17:20;;;;;;;22.65;6.90;;;0.60;99.90;;;;;;5014492;28;20033;-55
2024/01/16 03:19:45;;;;;;;20.50;6.70;;;0.60;99.90;;;;;;5013984;28;20021;-55
2024/01/16 03:22:11;;;;;;;26.45;8.65;;;0.50;99.90;;;;;;5013079;28;20045;-55
2024/01/16 03:24:37;;;;;;;18.42;6.65;;;0.50;99.90;;;;;;5014252;28;20030;-54
2024/01/16 03:27:04;;;;;;;24.02;6.90;;;0.60;99.90;;;;;;5013930;28;20117;-56
2024/01/16 03:29:30;;;;;;;17.75;6.95;;;0.60;99.90;;;;;;5014122;28;20034;-56
2024/01/16 03:31:55;;;;;;;20.98;6.05;;;0.50;99.90;;;;;;5014160;28;20109;-54
2024/01/16 03:34:21;;;;;;;23.52;6.78;;;0.50;99.90;;;;;;4996241;28;20030;-57
2024/01/16 03:36:47;;;;;;;15.82;6.93;;;0.50;99.90;;;;;;5013899;28;20419;-55
2024/01/16 03:39:12;;;;;;;15.55;6.47;;;0.50;99.90;;;;;;5013833;28;20727;-57
2024/01/16 03:41:38;;;;;;;17.27;7.18;;;0.50;99.90;;;;;;5013899;28;20446;-54
2024/01/16 03:44:04;;;;;;;18.00;6.63;;;0.50;99.90;;;;;;4996059;28;20041;-54
2024/01/16 03:46:29;;;;;;;12.30;5.82;;;0.50;99.90;;;;;;5013718;28;20029;-56
2024/01/16 03:48:55;;;;;;;15.88;6.55;;;0.50;99.90;;;;;;4996294;28;20037;-56
2024/01/16 03:51:20;;;;;;;15.15;6.95;;;0.40;99.90;;;;;;5013905;28;20026;-56
2024/01/16 03:53:46;;;;;;;27.02;6.53;;;0.40;99.90;;;;;;5013867;28;20602;-57
2024/01/16 03:56:12;;;;;;;22.45;7.70;;;0.50;99.90;;;;;;5013767;28;20037;-56
2024/01/16 03:58:41;;;;;;;23.10;7.05;;;0.50;99.90;;;;;;5011190;28;20076;-56
2024/01/16 04:01:06;;;;;;;17.45;6.10;;;0.50;99.90;;;;;;5009287;28;20365;-56
2024/01/16 04:03:32;;;;;;;22.23;7.90;;;0.50;99.90;;;;;;5013584;28;20065;-53
2024/01/16 04:05:58;;;;;;;18.70;7.68;;;0.50;99.90;;;;;;5013577;28;20033;-57
2024/01/16 04:08:23;;;;;;;21.73;7.50;;;0.50;99.90;;;;;;5013503;28;20372;-54
2024/01/16 04:10:49;;;;;;;25.63;6.68;;;0.50;99.90;;;;;;5013305;28;20349;-57
2024/01/16 04:13:14;;;;;;;16.38;6.93;;;0.50;99.90;;;;;;5013344;28;20034;-56
2024/01/16 04:15:40;;;;;;;13.90;7.43;;;0.50;99.90;;;;;;5012116;28;20088;-57
2024/01/16 04:18:06;;;;;;;16.85;7.45;;;0.50;99.90;;;;;;5013146;28;20566;-55
2024/01/16 04:20:32;;;;;;;18.33;7.32;;;0.50;99.90;;;;;;5013040;28;20053;-54
2024/01/16 04:22:58;;;;;;;17.08;7.50;;;0.50;99.90;;;;;;5013072;28;20061;-56
2024/01/16 04:25:24;;;;;;;15.02;7.60;;;0.50;99.90;;;;;;5012856;28;20495;-57
2024/01/16 04:27:49;;;;;;;19.95;6.43;;;0.50;99.90;;;;;;5012638;28;20030;-57
2024/01/16 04:30:15;;;;;;;15.02;6.50;;;0.60;99.90;;;;;;5012647;28;20381;-54
2024/01/16 04:32:41;;;;;;;11.80;6.88;;;0.60;99.90;;;;;;5012861;28;20779;-54
2024/01/16 04:35:07;;;;;;;22.95;7.38;;;0.60;99.90;;;;;;5012815;28;20040;-55
2024/01/16 04:37:32;;;;;;;12.65;6.35;;;0.60;99.90;;;;;;5012837;28;20514;-54
2024/01/16 04:39:59;;;;;;;19.98;6.05;;;0.60;99.90;;;;;;5013019;28;20026;-56
2024/01/16 04:42:25;;;;;;;19.25;6.75;;;0.60;99.90;;;;;;4995066;28;20570;-55
2024/01/16 04:44:50;;;;;;;15.60;7.60;;;0.60;99.90;;;;;;5012881;28;20057;-56
2024/01/16 04:47:16;;;;;;;13.13;7.03;;;0.60;99.90;;;;;;5012684;28;20038;-55
2024/01/16 04:49:43;;;;;;;21.38;8.00;;;0.50;99.90;;;;;;5012628;28;20069;-57
2024/01/16 04:52:08;;;;;;;15.45;7.78;;;0.50;99.90;;;;;;5012281;28;20472;-56
2024/01/16 04:54:34;;;;;;;21.15;8.23;;;0.50;99.90;;;;;;5012302;28;20084;-56
2024/01/16 04:57:00;;;;;;;15.73;8.13;;;0.50;99.90;;;;;;5012094;28;20045;-56
2024/01/16 04:59:25;;;;;;;20.92;9.40;;;0.50;99.90;;;;;;5012450;28;20471;-57
2024/01/16 05:01:51;;;;;;;14.63;8.18;;;0.50;99.90;;;;;;5012920;28;20611;-56
2024/01/16 05:04:17;;;;;;;15.68;8.30;;;0.50;99.90;;;;;;5012786;28;20051;-57
2024/01/16 05:06:43;;;;;;;23.60;8.80;;;0.50;99.90;;;;;;5012338;28;20484;-55
2024/01/16 05:09:12;;;;;;;22.48;8.15;;;0.50;99.90;;;;;;5012151;28;20026;-56
2024/01/16 05:11:37;;;;;;;19.17;8.70;;;0.50;99.90;;;;;;5012393;28;20395;-53
2024/01/16 05:14:03;;;;;;;23.63;9.50;;;0.50;99.90;;;;;;5012178;28;20026;-55
2024/01/16 05:16:29;;;;;;;17.33;8.30;;;0.40;99.90;;;;;;5011922;28;20138;-57
2024/01/16 05:18:54;;;;;;;15.98;8.02;;;0.40;99.90;;;;;;5011907;28;20034;-56
2024/01/16 05:21:20;;;;;;;14.82;7.75;;;0.40;99.90;;;;;;5011961;28;20116;-56
2024/01/16 05:23:46;;;;;;;22.92;11.43;;;0.40;99.90;;;;;;5011987;28;20113;-53
2024/01/16 05:26:12;;;;;;;15.40;8.07;;;0.40;99.90;;;;;;5011690;28;20187;-55
2024/01/16 05:28:39;;;;;;;17.30;8.32;;;0.50;99.90;;;;;;5011649;28;20030;-56
2024/01/16 05:31:04;;;;;;;14.07;7.45;;;0.50;99.90;;;;;;5011354;28;20038;-56
2024/01/16 05:33:30;;;;;;;18.67;8.23;;;0.50;99.90;;;;;;4994214;28;20026;-57
2024/01/16 05:35:57;;;;;;;25.40;8.20;;;0.50;99.90;;;;;;5011702;28;20040;-57
2024/01/16 05:38:22;;;;;;;18.58;6.28;;;0.50;99.90;;;;;;5011748;28;20026;-57
2024/01/16 05:40:48;;;;;;;14.60;7.13;;;0.50;99.90;;;;;;5011404;28;20029;-57
2024/01/16 05:43:14;;;;;;;20.65;7.53;;;0.40;99.90;;;;;;5010988;28;20030;-57
2024/01/16 05:45:40;;;;;;;14.43;7.55;;;0.40;99.90;;;;;;5011771;28;20030;-56
2024/01/16 05:48:07;;;;;;;16.70;6.68;;;0.40;99.90;;;;;;5011769;28;20037;-54
2024/01/16 05:50:34;;;;;;;19.88;8.75;;;0.40;99.90;;;;;;5011634;28;20484;-56
2024/01/16 05:53:00;;;;;;;14.88;7.75;;;0.40;99.90;;;;;;5011768;28;20077;-55
2024/01/16 05:55:26;;;;;;;16.90;7.75;;;0.40;99.90;;;;;;5011419;28;20069;-53
2024/01/16 05:57:52;;;;;;;24.92;9.57;;;0.40;99.90;;;;;;5011559;28;20061;-55
2024/01/16 06:00:18;;;;;;;36.67;12.25;;;0.40;99.90;;;;;;5011502;28;20026;-57
2024/01/16 06:02:44;;;;;;;27.77;10.40;;;0.40;99.90;;;;;;5011605;28;20546;-57
2024/01/16 06:05:10;;;;;;;22.08;10.38;;;0.30;99.90;;;;;;5010133;28;20025;-55
2024/01/16 06:07:35;;;;;;;27.52;10.75;;;0.40;99.90;;;;;;5011586;28;20894;-57
2024/01/16 06:10:01;;;;;;;24.92;10.80;;;0.30;99.90;;;;;;5011552;28;20109;-54
2024/01/16 06:12:27;;;;;;;27.92;12.43;;;0.40;99.90;;;;;;5011595;28;20037;-55
2024/01/16 06:14:52;;;;;;;28.80;12.45;;;0.30;99.90;;;;;;5011641;28;20398;-56
2024/01/16 06:17:18;;;;;;;23.35;8.50;;;0.30;99.90;;;;;;5011388;28;20034;-56
2024/01/16 06:19:44;;;;;;;23.50;10.45;;;0.30;99.90;;;;;;5011513;28;20030;-57
2024/01/16 06:22:09;;;;;;;41.90;14.00;;;0.30;99.90;;;;;;5011543;28;20110;-56
2024/01/16 06:24:36;;;;;;;20.38;8.70;;;0.30;99.90;;;;;;5011513;28;20026;-55
2024/01/16 06:27:05;;;;;;;19.25;6.38;;;0.30;99.90;;;;;;5011269;28;20149;-56
2024/01/16 06:29:31;;;;;;;14.82;6.65;;;0.30;99.90;;;;;;5011462;28;20041;-55
2024/01/16 06:31:56;;;;;;;17.30;7.57;;;0.30;99.90;;;;;;5007712;28;20422;-55
2024/01/16 06:34:22;;;;;;;20.83;6.40;;;0.30;99.90;;;;;;5031257;28;20135;-55
2024/01/16 06:36:47;;;;;;;22.13;7.50;;;0.30;99.90;;;;;;5031005;28;20021;-54
2024/01/16 06:39:13;;;;;;;14.07;6.75;;;0.30;99.90;;;;;;5032690;28;20064;-57
2024/01/16 06:41:40;;;;;;;17.85;6.20;;;0.30;99.90;;;;;;5033762;28;20096;-55
2024/01/16 06:44:06;;;;;;;16.85;6.50;;;0.40;99.90;;;;;;5035174;28;20021;-55
2024/01/16 06:46:32;;;;;;;15.88;6.05;;;0.30;99.90;;;;;;5035108;28;20045;-56
2024/01/16 06:48:58;;;;;;;13.10;5.72;;;0.30;99.90;;;;;;5035027;28;20408;-54
2024/01/16 06:51:23;;;;;;;17.20;5.70;;;0.30;99.90;;;;;;5034727;28;20026;-56
2024/01/16 06:53:49;;;;;;;15.10;6.60;;;0.30;99.90;;;;;;5034996;28;20033;-54
2024/01/16 06:56:14;;;;;;;15.40;5.88;;;0.30;99.90;;;;;;5034728;28;20031;-56
2024/01/16 06:58:40;;;;;;;11.30;6.60;;;0.30;99.90;;;;;;5034945;28;20025;-56
2024/01/16 07:01:05;;;;;;;20.50;7.22;;;0.40;99.90;;;;;;5034939;28;20063;-54
2024/01/16 07:03:31;;;;;;;23.40;6.75;;;0.40;99.90;;;;;;5034675;28;20083;-57
2024/01/16 07:05:57;;;;;;;14.80;6.60;;;0.30;99.90;;;;;;5034283;28;20057;-58
2024/01/16 07:08:23;;;;;;;15.98;6.60;;;0.30;99.90;;;;;;5042232;28;20092;-57
2024/01/16 07:10:48;;;;;;;22.13;6.55;;;0.40;99.90;;;;;;5054501;28;20033;-57
2024/01/16 07:13:14;;;;;;;10.80;5.07;;;0.40;99.90;;;;;;5054141;28;20099;-57
2024/01/16 07:15:40;;;;;;;20.35;6.47;;;0.40;99.90;;;;;;5053808;28;20113;-57
2024/01/16 07:18:06;;;;;;;40.90;13.80;;;0.30;99.90;;;;;;5053967;28;20383;-55
2024/01/16 07:20:31;;;;;;;128.32;40.15;;;0.40;99.90;;;;;;5053260;28;20072;-55
2024/01/16 07:22:57;;;;;;;20.50;10.70;;;0.40;99.90;;;;;;5053436;28;20017;-55
2024/01/16 07:25:23;;;;;;;30.60;11.52;;;0.30;99.90;;;;;;5053475;28;20036;-57
2024/01/16 07:27:49;;;;;;;28.40;14.70;;;0.40;99.90;;;;;;5053542;28;20108;-56
2024/01/16 07:30:15;;;;;;;17.15;6.90;;;0.40;99.90;;;;;;5053720;28;20107;-56
2024/01/16 07:32:41;;;;;;;22.48;6.63;;;0.40;99.90;;;;;;5042292;28;20080;-54
2024/01/16 07:35:07;;;;;;;16.45;5.85;;;0.40;99.90;;;;;;5053508;28;20060;-55
2024/01/16 07:37:33;;;;;;;17.65;6.07;;;0.30;99.90;;;;;;5053703;28;20025;-57
2024/01/16 07:39:58;;;;;;;18.27;5.22;;;0.40;99.90;;;;;;5053652;28;20033;-55
2024/01/16 07:42:24;;;;;;;20.38;5.30;;;0.40;99.90;;;;;;5052375;28;20053;-56
2024/01/16 07:44:51;;;;;;;18.10;5.90;;;0.30;99.90;;;;;;5053707;28;20032;-55
2024/01/16 07:47:17;;;;;;;18.38;4.97;;;0.40;99.90;;;;;;5053241;28;20375;-57
2024/01/16 07:49:43;;;;;;;8.77;4.20;;;0.40;99.90;;;;;;5052991;28;20040;-57
2024/01/16 07:52:09;;;;;;;12.88;4.30;;;0.40;99.90;;;;;;5052632;28;20028;-54
2024/01/16 07:54:34;;;;;;;20.38;5.00;;;0.40;99.90;;;;;;5052608;28;20044;-56
2024/01/16 07:57:00;;;;;;;13.80;4.30;;;0.40;99.90;;;;;;5052811;28;20025;-56
2024/01/16 07:59:26;;;;;;;13.23;5.80;;;0.40;99.90;;;;;;5053427;28;20016;-57
2024/01/16 08:01:53;;;;;;;15.25;6.05;;;0.40;99.90;;;;;;5052584;28;20028;-57
2024/01/16 08:04:19;;;;;;;13.35;4.82;;;0.40;99.90;;;;;;5036698;28;20037;-57
2024/01/16 08:06:45;;;;;;;18.13;5.50;;;0.50;99.90;;;;;;5053031;28;20025;-57
2024/01/16 08:09:12;;;;;;;12.32;5.15;;;0.50;99.90;;;;;;5052724;28;20021;-57
2024/01/16 08:11:39;;;;;;;12.50;4.72;;;0.60;99.90;;;;;;5053102;28;20100;-56
2024/01/16 08:14:05;;;;;;;22.10;4.50;;;0.60;99.90;;;;;;5052805;28;20639;-55
2024/01/16 08:16:31;;;;;;;9.07;3.35;;;0.60;99.90;;;;;;5034308;28;20044;-55
2024/01/16 08:18:56;;;;;;;11.60;3.40;;;0.70;99.90;;;;;;5035052;28;20056;-56
2024/01/16 08:21:22;;;;;;;15.98;3.13;;;0.80;99.90;;;;;;5052939;28;20021;-56
2024/01/16 08:23:47;;;;;;;14.85;4.18;;;0.80;99.90;;;;;;5053147;28;20025;-57
2024/01/16 08:26:13;;;;;;;10.65;3.10;;;0.90;99.90;;;;;;5052849;28;20071;-56
2024/01/16 08:28:38;;;;;;;16.23;4.53;;;0.90;99.90;;;;;;5036104;28;20025;-57
2024/01/16 08:31:04;;;;;;;35.63;11.95;;;1.00;99.90;;;;;;5032802;28;20034;-53
2024/01/16 08:33:31;;;;;;;19.38;8.13;;;1.10;99.90;;;;;;5015340;28;20056;-56
2024/01/16 08:35:57;;;;;;;53.35;15.25;;;1.30;99.90;;;;;;5032664;28;20491;-56
2024/01/16 08:38:22;;;;;;;21.20;8.35;;;1.30;99.90;;;;;;5032095;28;20025;-57
2024/01/16 08:40:48;;;;;;;19.25;6.50;;;1.50;99.90;;;;;;5032079;28;20036;-56
2024/01/16 08:43:14;;;;;;;34.95;8.40;;;1.60;99.90;;;;;;5032615;28;20030;-57
2024/01/16 08:45:39;;;;;;;14.65;4.38;;;1.60;99.90;;;;;;5032530;28;20049;-57
2024/01/16 08:48:05;;;;;;;8.57;2.78;;;1.60;99.90;;;;;;5032321;28;20026;-57
2024/01/16 08:50:31;;;;;;;7.95;2.88;;;1.50;99.90;;;;;;5032544;28;20032;-56
2024/01/16 08:52:56;;;;;;;10.70;3.25;;;1.40;99.90;;;;;;5032537;28;20036;-56
2024/01/16 08:55:22;;;;;;;11.50;3.00;;;1.30;99.90;;;;;;5032605;28;20036;-56
2024/01/16 08:57:47;;;;;;;5.45;2.72;;;1.30;99.90;;;;;;5032312;28;20030;-56
2024/01/16 09:00:15;;;;;;;8.48;2.20;;;1.20;99.90;;;;;;5032299;28;20458;-55
2024/01/16 09:02:40;;;;;;;7.85;2.20;;;1.20;99.90;;;;;;5031423;28;20045;-57
2024/01/16 09:05:06;;;;;;;9.10;2.50;;;1.20;99.90;;;;;;5031220;28;20068;-56
2024/01/16 09:07:32;;;;;;;9.35;2.53;;;1.20;99.90;;;;;;5031953;28;20029;-56
2024/01/16 09:09:58;;;;;;;16.92;3.05;;;1.20;99.90;;;;;;5032172;28;20022;-57
2024/01/16 09:12:23;;;;;;;12.75;4.00;;;1.20;99.90;;;;;;5032013;28;20653;-55
2024/01/16 09:14:49;;;;;;;17.05;3.80;;;1.30;99.90;;;;;;5031956;28;20025;-56
2024/01/16 09:17:15;;;;;;;15.88;3.00;;;1.30;99.90;;;;;;5031584;28;20026;-57
2024/01/16 09:19:41;;;;;;;7.28;2.80;;;1.30;99.90;;;;;;5031857;28;20155;-55
2024/01/16 09:22:06;;;;;;;11.80;3.95;;;1.50;99.90;;;;;;5031951;28;20096;-56
2024/01/16 09:24:32;;;;;;;19.38;3.92;;;1.60;99.90;;;;;;5031966;28;20034;-55
2024/01/16 09:26:58;;;;;;;13.73;3.10;;;1.80;99.90;;;;;;5031662;28;20034;-57
2024/01/16 09:29:24;;;;;;;22.23;5.05;;;2.00;99.90;;;;;;5032018;28;20028;-56
2024/01/16 09:31:50;;;;;;;22.73;5.00;;;2.10;99.90;;;;;;5031564;28;20416;-54
2024/01/16 09:34:17;;;;;;;5.22;1.95;;;2.20;99.90;;;;;;5013250;28;20064;-57
2024/01/16 09:36:42;;;;;;;10.65;3.10;;;2.30;99.90;;;;;;5031529;28;20395;-57
2024/01/16 09:39:08;;;;;;;11.18;3.15;;;2.30;99.90;;;;;;5031687;28;20032;-56
2024/01/16 09:41:37;;;;;;;14.23;2.50;;;2.20;99.90;;;;;;5031714;28;20136;-57
2024/01/16 09:44:04;;;;;;;14.93;2.50;;;2.30;99.90;;;;;;5031489;28;20052;-57
2024/01/16 09:46:31;;;;;;;16.83;3.22;;;2.30;99.90;;;;;;5031075;28;20025;-54
2024/01/16 09:49:00;;;;;;;9.77;2.83;;;2.50;99.90;;;;;;5031455;28;20030;-54
2024/01/16 09:51:26;;;;;;;8.85;2.40;;;2.20;99.90;;;;;;5030381;28;20107;-56
2024/01/16 09:53:52;;;;;;;19.52;5.13;;;2.10;99.90;;;;;;5031287;28;20072;-56
2024/01/16 09:56:22;;;;;;;21.80;5.60;;;2.00;99.90;;;;;;5031177;28;20026;-57
2024/01/16 09:58:49;;;;;;;10.82;3.17;;;2.00;99.90;;;;;;5030561;28;20104;-56
2024/01/16 10:01:16;;;;;;;11.32;2.85;;;1.90;99.90;;;;;;5030942;28;20032;-57
2024/01/16 10:03:45;;;;;;;18.05;4.03;;;2.00;99.90;;;;;;5031397;28;20026;-55
2024/01/16 10:06:11;;;;;;;21.90;3.70;;;2.00;99.90;;;;;;5031302;28;20487;-54
2024/01/16 10:08:37;;;;;;;13.25;3.22;;;1.90;99.90;;;;;;5031120;28;20486;-56
2024/01/16 10:11:03;;;;;;;10.05;2.55;;;1.90;99.90;;;;;;5030959;28;20035;-56
2024/01/16 10:13:29;;;;;;;13.43;3.08;;;1.90;99.90;;;;;;5030838;28;20120;-56
2024/01/16 10:15:55;;;;;;;11.88;2.50;;;2.00;99.90;;;;;;5030835;28;20110;-57
2024/01/16 10:18:30;;;;;;;5.75;2.42;;;2.00;99.90;;;;;;5030979;28;20022;-54
2024/01/16 10:20:56;;;;;;;6.80;2.05;;;2.10;99.90;;;;;;5030941;28;20043;-56
2024/01/16 10:23:29;;;;;;;9.68;2.53;;;2.10;99.90;;;;;;5031407;28;20108;-56
2024/01/16 10:26:07;;;;;;;13.32;2.10;;;1.90;99.90;;;;;;5030897;28;20121;-56
2024/01/16 10:28:38;;;;;;;8.32;2.28;;;2.00;99.90;;;;;;5030761;28;20033;-55
2024/01/16 10:31:05;;;;;;;9.30;2.92;;;2.20;99.90;;;;;;5030971;28;20033;-57
2024/01/16 10:33:32;;;;;;;8.90;2.17;;;2.20;99.90;;;;;;5017294;28;20049;-57
2024/01/16 10:36:11;;;;;;;31.63;10.82;;;2.20;99.90;;;;;;5030807;28;20048;-57
2024/01/16 10:38:38;;;;;;;55.55;16.85;;;2.30;99.90;;;;;;5029873;28;20476;-57
2024/01/16 10:41:17;;;;;;;31.17;12.43;;;2.50;99.90;;;;;;5029867;28;20091;-55
2024/01/16 10:43:46;;;;;;;33.38;12.45;;;2.60;99.90;;;;;;5030320;28;20021;-56
2024/01/16 10:46:16;;;;;;;124.53;37.15;;;2.70;99.90;;;;;;5030571;28;20033;-54
2024/01/16 10:48:44;;;;;;;13.00;3.70;;;2.80;99.90;;;;;;5030801;28;20130;-57
2024/01/16 10:51:13;;;;;;;18.00;5.10;;;2.80;99.90;;;;;;5031003;28;20531;-57
2024/01/16 10:53:43;;;;;;;21.08;5.72;;;2.80;99.90;;;;;;5030110;28;20033;-57
2024/01/16 10:56:15;;;;;;;13.43;3.25;;;3.00;99.90;;;;;;5030575;28;20053;-55
2024/01/16 10:58:42;;;;;;;13.23;4.38;;;3.20;99.90;;;;;;5030755;28;20018;-56
2024/01/16 11:01:12;;;;;;;7.22;2.38;;;3.10;99.90;;;;;;5030857;28;20026;-57
2024/01/16 11:03:48;;;;;;;13.57;3.72;;;3.10;99.90;;;;;;5030708;28;20104;-57
2024/01/16 11:06:16;;;;;;;14.40;3.03;;;3.20;99.90;;;;;;5030570;28;20044;-56
2024/01/16 11:08:42;;;;;;;6.28;2.92;;;3.10;99.90;;;;;;5030458;28;20028;-56
2024/01/16 11:11:08;;;;;;;21.80;5.10;;;3.00;99.90;;;;;;5030458;28;20029;-56
2024/01/16 11:13:35;;;;;;;12.80;3.70;;;2.90;99.90;;;;;;5030653;28;20037;-56
2024/01/16 11:16:03;;;;;;;10.07;2.92;;;2.90;99.90;;;;;;5030425;28;20033;-54
2024/01/16 11:18:31;;;;;;;11.38;3.45;;;3.00;99.90;;;;;;5030356;28;20026;-54
2024/01/16 11:20:58;;;;;;;13.43;4.00;;;3.00;99.90;;;;;;5030572;28;20031;-53
2024/01/16 11:23:24;;;;;;;11.77;3.10;;;2.70;99.90;;;;;;5030801;28;20088;-55
2024/01/16 11:25:50;;;;;;;12.93;4.53;;;2.60;99.90;;;;;;5032777;28;20037;-54
2024/01/16 11:28:15;;;;;;;9.00;3.17;;;2.50;99.90;;;;;;5034360;28;20036;-57
2024/01/16 11:30:45;;;;;;;16.08;4.93;;;2.60;99.90;;;;;;5034212;28;20056;-54
2024/01/16 11:33:36;;;;;;;17.20;3.50;;;2.50;99.90;;;;;;5015779;28;20027;-55
2024/01/16 11:36:02;;;;;;;13.38;4.97;;;2.40;99.90;;;;;;5030261;28;20038;-55
2024/01/16 11:38:32;;;;;;;11.00;3.25;;;2.40;99.90;;;;;;5033857;28;20074;-56
2024/01/16 11:40:58;;;;;;;15.57;3.88;;;2.50;99.90;;;;;;5033933;28;20033;-54
2024/01/16 11:43:32;;;;;;;22.52;5.05;;;2.40;99.90;;;;;;5033807;28;20077;-54
2024/01/16 11:46:07;;;;;;;30.73;6.25;;;2.20;99.90;;;;;;5033888;28;20025;-57
2024/01/16 11:48:34;;;;;;;14.20;5.25;;;2.00;99.90;;;;;;5033551;28;20495;-56
2024/01/16 11:50:59;;;;;;;19.35;4.15;;;2.00;99.90;;;;;;5033614;28;20088;-55
2024/01/16 11:53:41;;;;;;;9.23;2.97;;;2.10;99.90;;;;;;5013765;28;20026;-57
2024/01/16 11:56:55;;;;;;;8.48;2.47;;;2.00;99.90;;;;;;5013750;28;20053;-56
2024/01/16 11:59:54;;;;;;;4.90;2.10;;;2.00;99.90;;;;;;5013525;28;20036;-54
2024/01/16 12:02:55;;;;;;;7.35;1.73;;;2.30;99.90;;;;;;5013631;28;20030;-56
2024/01/16 12:05:21;;;;;;;6.90;2.38;;;2.50;99.90;;;;;;5011478;28;20034;-55
2024/01/16 12:07:49;;;;;;;11.95;2.38;;;2.70;99.90;;;;;;5028726;28;20044;-53
2024/01/16 12:10:18;;;;;;;10.73;1.85;;;2.50;99.90;;;;;;5033651;28;20095;-54
2024/01/16 12:12:45;;;;;;;11.45;3.45;;;2.40;99.90;;;;;;5033245;28;20113;-57
2024/01/16 12:15:17;;;;;;;6.13;1.88;;;2.50;99.90;;;;;;5033266;28;20108;-56
2024/01/16 12:17:53;;;;;;;9.73;1.67;;;2.60;99.90;;;;;;5033566;28;20056;-57
2024/01/16 12:20:20;;;;;;;14.45;2.25;;;2.80;99.90;;;;;;5033479;28;20037;-55
2024/01/16 12:22:45;;;;;;;8.20;3.08;;;2.80;99.90;;;;;;5032999;28;20025;-57
2024/01/16 12:25:12;;;;;;;5.70;1.88;;;2.90;99.90;;;;;;5032768;28;20051;-55
2024/01/16 12:27:38;;;;;;;4.63;1.70;;;2.70;99.90;;;;;;5033144;28;20112;-57
2024/01/16 12:30:07;;;;;;;9.85;1.50;;;2.60;99.90;;;;;;5032893;28;20113;-55
2024/01/16 12:32:33;;;;;;;17.80;2.42;;;2.50;99.90;;;;;;5015231;28;20591;-54
2024/01/16 12:34:59;;;;;;;8.30;2.38;;;2.30;99.90;;;;;;5013497;28;20041;-55
2024/01/16 12:37:24;;;;;;;8.40;2.15;;;2.10;99.90;;;;;;5032165;28;20021;-56
2024/01/16 12:39:51;;;;;;;6.03;1.50;;;2.00;99.90;;;;;;5032625;28;20030;-57
2024/01/16 12:42:18;;;;;;;11.90;2.72;;;1.70;99.90;;;;;;5032671;28;20025;-56
2024/01/16 12:44:45;;;;;;;7.88;1.60;;;1.60;99.90;;;;;;5032736;28;20029;-56
2024/01/16 12:47:15;;;;;;;6.50;2.25;;;1.60;99.90;;;;;;5032554;28;20036;-54